Terminal Aerodrome Forecast
Issued by NWS

Home | Current Version | Previous Version | Text Only | Print | Product List | Glossary On
Versions: 1 2 3 4 5 6 7 8 9 10 11 12 13 14 15
000
FTUS43 KPAH 191735
TAFCGI
TAF
KCGI 191735Z 1918/2018 32011G19KT P6SM SKC
     FM192300 VRB03KT P6SM SKC
     FM201400 19008KT P6SM BKN250=

USA.gov is the U.S. government's official web portal to all federal, state and local government web resources and services.